メインページ
METAR-TAF:

METAR-TAF

空港 :

ニューヨーク / ラガーディア, ニューヨーク, アメリカ合衆国

ラガーディア空港

緯度: 40-46-45N, 経度: 073-52-48W, 海抜: 6m

現時点の気象観測

当レポートは38分前の15:51(UTC)に作成
の風 5kt
気温 12°C
湿度 71%
気圧 1012 hPa
視程: 16.1km
高度5500ftの曇り

METAR: KLGA 221551Z 35005KT 10SM OVC055 12/07 A2988 RMK AO2 SLP118 T01170072

時間: 11:29 (16:29 UTC)

予報

当レポートは57分前の15:32(UTC)に作成
予報は22日の 16時(UTC)から 23日の 12時(UTC)まで有効
北/北西の風 10kt
視程: 10km
高度2500ftの雲は散在している
高度7000ftの千切れ雲あり
22日の 16時(UTC)から 22日の 18時(UTC)まで一時的に
高度2500ftの千切れ雲あり
弱いにわか雨
22日の 1800時(UTC)から
北/北西の風 17kt、最大25ktの突風を伴う
視程: 10km
高度7000ftの雲はほとんどない
高度25000ftの雲は散在している
23日の 0300時(UTC)から
北西の風 13kt
視程: 10km
晴天
23日の 0700時(UTC)から
北西の風 8kt
視程: 10km
晴天

TAF: KLGA 221532Z 2216/2312 33010KT P6SM SCT025 BKN070 TEMPO 2216/2218 -SHRA BKN025 FM221800 33017G25KT P6SM FEW070 SCT250 FM230300 32013KT P6SM SKC FM230700 32008KT P6SM SKC

4,000以上の空港の気象観測と天気予報(METAR報とTAF報)

利用可能な観測所は地図上に黄色い丸と赤い丸で示す。

丸の上にカーソルを重ねると観測所名を参照できる。

次にクリックすると気象観測と天気予報を参照できる。

マップの切り替え:黒色「×」印の緑ボタンをクリックして拡大、「-」印の緑ボタンをクリックして縮小、緑色の三角印をクリックして隣りの地図に切り替え


METAR-TAF: